createdAt,value
2022-09-15T00:00:08.803Z,69.73
2022-09-15T00:02:36.055Z,69.41
2022-09-15T00:05:03.975Z,69.77
2022-09-15T00:07:31.510Z,69.91
2022-09-15T00:09:58.524Z,69.59
2022-09-15T00:12:26.862Z,69.74
2022-09-15T00:14:54.121Z,69.97
2022-09-15T00:17:21.492Z,70.02
2022-09-15T00:19:48.476Z,70.07
2022-09-15T00:22:15.504Z,69.86
2022-09-15T00:24:42.546Z,70.00
2022-09-15T00:27:09.517Z,70.13
2022-09-15T00:29:36.703Z,69.82
2022-09-15T00:32:04.235Z,70.27
2022-09-15T00:34:31.233Z,70.34
2022-09-15T00:36:58.280Z,70.13
2022-09-15T00:39:25.510Z,70.32
2022-09-15T00:41:52.503Z,70.68
2022-09-15T00:44:19.465Z,70.63
2022-09-15T00:47:09.332Z,70.59
2022-09-15T00:49:38.278Z,70.84
2022-09-15T00:52:07.394Z,70.96
2022-09-15T00:54:43.312Z,71.12
2022-09-15T00:57:34.214Z,71.05
2022-09-15T01:00:04.333Z,71.23
2022-09-15T01:02:35.707Z,71.32
2022-09-15T01:05:07.663Z,71.31
2022-09-15T01:07:54.063Z,71.55
2022-09-15T01:10:26.208Z,71.61
2022-09-15T01:12:55.612Z,71.87
2022-09-15T01:15:25.430Z,71.83
2022-09-15T01:18:21.924Z,72.09
2022-09-15T01:21:07.365Z,72.22
2022-09-15T01:24:11.671Z,72.23
2022-09-15T01:26:56.941Z,72.31
2022-09-15T01:29:29.821Z,72.66
2022-09-15T01:32:46.326Z,72.49
2022-09-15T01:35:15.826Z,72.69
2022-09-15T01:37:47.054Z,72.68
2022-09-15T01:40:14.189Z,72.85
2022-09-15T01:42:43.655Z,72.95
2022-09-15T01:45:16.782Z,72.99
2022-09-15T01:47:45.453Z,73.23
2022-09-15T01:50:16.323Z,73.28
2022-09-15T01:52:47.062Z,73.41
2022-09-15T01:55:23.202Z,73.33
2022-09-15T01:57:50.634Z,73.60
2022-09-15T02:00:17.640Z,73.92
2022-09-15T02:03:00.333Z,73.83
2022-09-15T02:05:42.538Z,73.97
2022-09-15T02:08:25.301Z,74.18
2022-09-15T02:10:58.963Z,74.24
2022-09-15T02:13:45.277Z,74.03
2022-09-15T02:16:20.163Z,74.46
2022-09-15T02:18:59.892Z,74.36
2022-09-15T02:21:31.737Z,74.70
2022-09-15T02:24:03.614Z,74.73
2022-09-15T02:26:32.973Z,74.59
2022-09-15T02:29:04.702Z,75.06
2022-09-15T02:31:33.882Z,74.78
2022-09-15T02:34:05.864Z,74.98
2022-09-15T02:36:32.648Z,75.08
2022-09-15T02:39:05.133Z,75.31
2022-09-15T02:41:34.329Z,75.64
2022-09-15T02:44:01.405Z,75.63
2022-09-15T02:46:28.462Z,75.44
2022-09-15T02:48:57.012Z,75.55
2022-09-15T02:51:23.985Z,75.76
2022-09-15T02:53:51.253Z,76.10
2022-09-15T02:56:18.353Z,75.63
2022-09-15T02:58:45.354Z,76.24
2022-09-15T03:01:15.835Z,76.43
2022-09-15T03:03:46.606Z,76.54
2022-09-15T03:06:16.992Z,75.97
2022-09-15T03:08:58.427Z,76.75
2022-09-15T03:11:27.251Z,76.25
2022-09-15T03:13:58.956Z,76.83
2022-09-15T03:16:27.605Z,76.58
2022-09-15T03:18:56.031Z,76.64
2022-09-15T03:21:23.354Z,76.43
2022-09-15T03:23:50.453Z,77.15
2022-09-15T03:26:17.653Z,76.98
2022-09-15T03:28:44.764Z,77.11
2022-09-15T03:31:11.776Z,77.38
2022-09-15T03:33:38.873Z,76.95
2022-09-15T03:36:07.006Z,77.08
2022-09-15T03:38:34.156Z,77.29
2022-09-15T03:41:03.941Z,77.43
2022-09-15T03:43:32.121Z,77.37
2022-09-15T03:45:59.527Z,77.45
2022-09-15T03:48:28.563Z,77.58
2022-09-15T03:50:55.623Z,77.44
2022-09-15T03:53:22.853Z,77.58
2022-09-15T03:55:50.206Z,77.51
2022-09-15T03:58:18.611Z,77.40
2022-09-15T04:00:46.278Z,77.77
2022-09-15T04:03:13.651Z,77.64
2022-09-15T04:05:42.183Z,77.78
2022-09-15T04:08:12.454Z,77.67
2022-09-15T04:10:40.419Z,77.61
2022-09-15T04:13:07.490Z,77.74
2022-09-15T04:15:34.524Z,77.68
2022-09-15T04:18:01.516Z,77.61
2022-09-15T04:20:30.481Z,77.80
2022-09-15T04:22:57.620Z,77.62
2022-09-15T04:25:27.780Z,77.80
2022-09-15T04:27:55.136Z,77.56
2022-09-15T04:30:22.084Z,77.64
2022-09-15T04:32:50.153Z,77.74
2022-09-15T04:35:17.209Z,77.72
2022-09-15T04:37:44.619Z,77.64
2022-09-15T04:40:11.704Z,77.80
2022-09-15T04:42:38.740Z,77.79
2022-09-15T04:45:07.199Z,77.62
2022-09-15T04:47:34.484Z,77.80
2022-09-15T04:50:01.391Z,77.71
2022-09-15T04:52:28.540Z,77.72
2022-09-15T04:54:55.444Z,77.67
2022-09-15T04:57:22.376Z,77.55
2022-09-15T04:59:49.356Z,77.50
2022-09-15T05:02:16.435Z,77.54
2022-09-15T05:04:44.039Z,77.37
2022-09-15T05:07:11.180Z,76.86
2022-09-15T05:09:38.330Z,76.95
2022-09-15T05:12:05.513Z,76.73
2022-09-15T05:14:32.567Z,76.69
2022-09-15T05:16:59.462Z,76.95
2022-09-15T05:19:26.346Z,76.59
2022-09-15T05:21:53.288Z,76.62
2022-09-15T05:24:20.380Z,76.57
2022-09-15T05:26:47.331Z,76.77
2022-09-15T05:29:14.324Z,76.64
2022-09-15T05:31:41.309Z,76.45
2022-09-15T05:34:08.329Z,76.33
2022-09-15T05:36:35.346Z,76.36
2022-09-15T05:39:02.334Z,76.28
2022-09-15T05:41:29.845Z,76.43
2022-09-15T05:43:58.359Z,76.29
2022-09-15T05:46:26.398Z,76.40
2022-09-15T05:48:57.004Z,76.10
2022-09-15T05:51:24.331Z,75.98
2022-09-15T05:53:51.780Z,76.06
2022-09-15T05:56:19.170Z,75.98
2022-09-15T05:58:48.001Z,75.85
2022-09-15T06:01:20.163Z,75.98
2022-09-15T06:03:47.792Z,75.60
2022-09-15T06:06:15.258Z,75.47
2022-09-15T06:08:47.023Z,75.43
2022-09-15T06:11:17.500Z,75.53
2022-09-15T06:13:45.517Z,75.17
2022-09-15T06:16:21.486Z,75.38
2022-09-15T06:18:50.163Z,75.07
2022-09-15T06:21:22.150Z,75.31
2022-09-15T06:24:12.169Z,75.07
2022-09-15T06:26:39.170Z,75.00
2022-09-15T06:29:06.579Z,74.66
2022-09-15T06:31:34.420Z,74.65
2022-09-15T06:34:08.992Z,74.72
2022-09-15T06:36:36.973Z,74.60
2022-09-15T06:39:04.192Z,74.32
2022-09-15T06:41:52.425Z,74.40
2022-09-15T06:44:21.450Z,74.06
2022-09-15T06:46:49.743Z,74.04
2022-09-15T06:49:17.008Z,73.71
2022-09-15T06:51:43.981Z,73.89
2022-09-15T06:54:11.954Z,73.69
2022-09-15T06:56:38.930Z,73.53
2022-09-15T06:59:05.948Z,73.28
2022-09-15T07:01:33.557Z,73.30
2022-09-15T07:04:01.850Z,73.12
2022-09-15T07:06:30.421Z,73.09
2022-09-15T07:08:58.642Z,72.81
2022-09-15T07:11:26.144Z,72.59
2022-09-15T07:13:53.388Z,72.68
2022-09-15T07:16:21.644Z,72.67
2022-09-15T07:18:49.971Z,72.34
2022-09-15T07:21:20.569Z,72.16
2022-09-15T07:23:48.452Z,71.96
2022-09-15T07:26:18.131Z,72.02
2022-09-15T07:28:47.490Z,71.79
2022-09-15T07:31:17.992Z,71.58
2022-09-15T07:33:45.479Z,71.23
2022-09-15T07:36:12.950Z,70.84
2022-09-15T07:38:42.221Z,70.57
2022-09-15T07:41:18.491Z,70.26
2022-09-15T07:43:50.013Z,69.95
2022-09-15T07:46:18.953Z,69.60
2022-09-15T07:48:46.890Z,69.07
2022-09-15T07:51:14.141Z,68.74
2022-09-15T07:53:41.299Z,68.14
2022-09-15T07:56:08.750Z,67.93
2022-09-15T07:58:35.811Z,67.55
2022-09-15T08:01:14.932Z,67.12
2022-09-15T08:03:43.193Z,66.69
2022-09-15T08:06:10.976Z,66.52
2022-09-15T08:08:39.189Z,66.24
2022-09-15T08:11:08.050Z,65.99
2022-09-15T08:13:35.639Z,65.76
2022-09-15T08:16:13.664Z,65.77
2022-09-15T08:18:42.372Z,65.47
2022-09-15T08:21:13.030Z,65.29
2022-09-15T08:23:40.484Z,65.43
2022-09-15T08:26:13.624Z,65.27
2022-09-15T08:28:41.778Z,65.34
2022-09-15T08:31:11.580Z,65.42
2022-09-15T08:33:44.595Z,65.60
2022-09-15T08:36:13.401Z,65.56
2022-09-15T08:38:41.761Z,65.54
2022-09-15T08:41:19.550Z,65.58
2022-09-15T08:44:25.380Z,65.45
2022-09-15T08:47:11.294Z,65.45
2022-09-15T08:49:59.758Z,65.27
2022-09-15T08:52:32.771Z,65.27
2022-09-15T08:55:05.382Z,65.29
2022-09-15T08:57:32.452Z,65.29
2022-09-15T08:59:59.789Z,65.47
2022-09-15T09:03:06.390Z,65.68
2022-09-15T09:05:57.660Z,65.83
2022-09-15T09:08:43.210Z,65.88
2022-09-15T09:11:19.532Z,65.84
2022-09-15T09:13:59.421Z,65.82
2022-09-15T09:16:47.360Z,65.81
2022-09-15T09:19:30.025Z,65.84
2022-09-15T09:22:18.130Z,65.56
2022-09-15T09:24:47.534Z,65.43
2022-09-15T09:27:20.781Z,65.42
2022-09-15T09:29:50.331Z,65.16
2022-09-15T09:32:22.041Z,65.13
2022-09-15T09:34:56.000Z,65.04
2022-09-15T09:37:23.948Z,65.03
2022-09-15T09:39:51.295Z,64.80
2022-09-15T09:42:19.051Z,64.63
2022-09-15T09:44:47.137Z,64.44
2022-09-15T09:47:14.621Z,64.16
2022-09-15T09:49:49.110Z,63.63
2022-09-15T09:52:38.673Z,63.35
2022-09-15T09:55:25.187Z,63.06
2022-09-15T09:57:52.290Z,62.95
2022-09-15T10:00:38.771Z,62.56
2022-09-15T10:03:30.610Z,62.28
2022-09-15T10:06:06.992Z,62.05
2022-09-15T10:08:35.890Z,61.96
2022-09-15T10:11:06.300Z,61.66
2022-09-15T10:13:35.291Z,61.47
2022-09-15T10:16:04.051Z,61.07
2022-09-15T10:18:34.031Z,60.99
2022-09-15T10:21:03.362Z,60.68
2022-09-15T10:23:32.151Z,60.19
2022-09-15T10:26:32.305Z,59.62
2022-09-15T10:29:15.634Z,59.34
2022-09-15T10:31:44.675Z,59.34
2022-09-15T10:34:31.642Z,58.88
2022-09-15T10:37:32.670Z,58.71
2022-09-15T10:40:01.431Z,58.55
2022-09-15T10:42:46.780Z,58.18
2022-09-15T10:45:26.032Z,58.11
2022-09-15T10:48:11.939Z,57.90
2022-09-15T10:50:57.663Z,57.62
2022-09-15T10:53:59.995Z,57.40
2022-09-15T10:56:30.999Z,57.10
2022-09-15T10:58:58.827Z,56.76
2022-09-15T11:01:28.888Z,56.51
2022-09-15T11:04:23.717Z,56.44
2022-09-15T11:06:56.938Z,56.16
2022-09-15T11:09:27.310Z,55.88
2022-09-15T11:12:29.290Z,55.64
2022-09-15T11:15:26.741Z,55.44
2022-09-15T11:18:10.562Z,55.04
2022-09-15T11:21:08.292Z,54.97
2022-09-15T11:23:40.785Z,54.66
2022-09-15T11:26:12.392Z,54.38
2022-09-15T11:28:44.212Z,54.30
2022-09-15T11:31:18.430Z,54.02
2022-09-15T11:33:56.110Z,53.95
2022-09-15T11:36:35.031Z,53.94
2022-09-15T11:39:10.662Z,53.78
2022-09-15T11:41:42.181Z,53.76
2022-09-15T11:44:41.552Z,54.00
2022-09-15T11:47:33.340Z,54.13
2022-09-15T11:50:10.100Z,54.19
2022-09-15T11:52:50.349Z,54.05
2022-09-15T11:55:25.140Z,54.13
2022-09-15T11:58:22.119Z,54.20
2022-09-15T12:00:55.910Z,54.23
2022-09-15T12:03:46.188Z,54.07
2022-09-15T12:06:17.851Z,54.07
2022-09-15T12:08:58.191Z,54.14
2022-09-15T12:11:28.302Z,54.15
2022-09-15T12:13:56.054Z,54.02
2022-09-15T12:16:24.084Z,54.11
2022-09-15T12:19:09.020Z,54.11
2022-09-15T12:21:41.791Z,54.06
2022-09-15T12:24:17.231Z,54.20
2022-09-15T12:26:46.740Z,53.99
2022-09-15T12:29:31.500Z,53.88
2022-09-15T12:32:18.839Z,53.76
2022-09-15T12:35:04.451Z,53.79
2022-09-15T12:37:42.900Z,53.84
2022-09-15T12:40:35.189Z,53.62
2022-09-15T12:43:04.780Z,53.66
2022-09-15T12:45:35.992Z,53.60
2022-09-15T12:48:06.252Z,53.70
2022-09-15T12:50:36.650Z,53.69
2022-09-15T12:53:20.275Z,53.79
2022-09-15T12:56:05.583Z,53.73
2022-09-15T12:58:51.640Z,53.83
2022-09-15T13:01:19.123Z,53.92
2022-09-15T13:03:46.613Z,53.77
2022-09-15T13:06:29.409Z,54.03
2022-09-15T13:09:02.673Z,53.85
2022-09-15T13:11:38.550Z,53.93
2022-09-15T13:14:08.394Z,54.11
2022-09-15T13:16:37.960Z,54.13
2022-09-15T13:19:41.342Z,53.97
2022-09-15T13:22:11.486Z,54.10
2022-09-15T13:24:59.041Z,54.03
2022-09-15T13:28:01.644Z,53.94
2022-09-15T13:30:40.686Z,53.95
2022-09-15T13:33:26.556Z,53.88
2022-09-15T13:35:56.173Z,54.06
2022-09-15T13:38:52.609Z,53.95
2022-09-15T13:41:40.220Z,53.67
2022-09-15T13:44:17.992Z,53.31
2022-09-15T13:47:06.690Z,53.19
2022-09-15T13:50:11.611Z,53.32
2022-09-15T13:53:00.112Z,53.22
2022-09-15T13:55:35.101Z,53.04
2022-09-15T14:01:07.273Z,53.01
2022-09-15T14:03:57.434Z,52.87
2022-09-15T14:06:27.670Z,52.93
2022-09-15T14:08:57.851Z,52.78
2022-09-15T14:11:28.859Z,52.78
2022-09-15T14:13:58.016Z,52.47
2022-09-15T14:16:28.079Z,52.14
2022-09-15T14:18:57.786Z,51.99
2022-09-15T14:21:32.689Z,51.90
2022-09-15T14:24:22.910Z,51.49
2022-09-15T14:26:50.152Z,51.56
2022-09-15T14:29:21.153Z,51.55
2022-09-15T14:31:48.843Z,51.31
2022-09-15T14:34:20.830Z,50.96
2022-09-15T14:36:54.501Z,50.76
2022-09-15T14:39:22.654Z,50.62
2022-09-15T14:41:50.916Z,50.46
2022-09-15T14:47:28.823Z,50.53
2022-09-15T14:50:17.790Z,50.91
2022-09-15T14:52:50.328Z,51.20
2022-09-15T14:55:40.436Z,51.55
2022-09-15T14:58:19.652Z,52.04
2022-09-15T15:00:55.827Z,52.27
2022-09-15T15:03:43.090Z,52.71
2022-09-15T15:06:35.383Z,52.90
2022-09-15T15:09:06.440Z,53.22
2022-09-15T15:11:36.130Z,53.42
2022-09-15T15:14:03.946Z,53.45
2022-09-15T15:16:32.092Z,53.49
2022-09-15T15:18:59.338Z,53.32
2022-09-15T15:21:45.267Z,52.98
2022-09-15T15:24:15.314Z,52.72
2022-09-15T15:26:45.908Z,52.62
2022-09-15T15:29:48.081Z,52.51
2022-09-15T15:32:21.410Z,52.29
2022-09-15T15:34:53.980Z,52.05
2022-09-15T15:37:31.956Z,52.06
2022-09-15T15:40:08.119Z,52.11
2022-09-15T15:42:35.256Z,52.11
2022-09-15T15:45:24.516Z,51.96
2022-09-15T15:47:51.830Z,52.04
2022-09-15T15:50:32.219Z,52.06
2022-09-15T15:53:01.099Z,52.10
2022-09-15T15:55:37.999Z,52.26
2022-09-15T15:58:09.667Z,52.43
2022-09-15T16:00:41.010Z,52.70
2022-09-15T16:03:09.560Z,53.21
2022-09-15T16:05:38.379Z,52.83
2022-09-15T16:08:07.804Z,53.01
2022-09-15T16:10:42.068Z,53.27
2022-09-15T16:13:13.353Z,53.26
2022-09-15T16:15:40.409Z,53.73
2022-09-15T16:18:07.906Z,54.31
2022-09-15T16:20:35.080Z,54.87
2022-09-15T16:23:02.117Z,55.37
2022-09-15T16:25:36.481Z,56.06
2022-09-15T16:28:04.265Z,56.43
2022-09-15T16:30:31.836Z,56.69
2022-09-15T16:32:59.675Z,57.55
2022-09-15T16:35:44.421Z,57.50
2022-09-15T16:38:11.576Z,57.87
2022-09-15T16:40:38.492Z,58.25
2022-09-15T16:43:10.706Z,58.43
2022-09-15T16:45:40.742Z,58.74
2022-09-15T16:48:09.542Z,58.82
2022-09-15T16:50:39.850Z,58.93
2022-09-15T16:53:17.970Z,58.95
2022-09-15T16:55:52.888Z,58.90
2022-09-15T16:58:20.968Z,58.85
2022-09-15T17:00:50.044Z,59.10
2022-09-15T17:03:26.907Z,59.26
2022-09-15T17:05:59.628Z,59.24
2022-09-15T17:08:29.630Z,59.20
2022-09-15T17:10:58.065Z,59.29
2022-09-15T17:13:29.528Z,59.22
2022-09-15T17:15:58.847Z,59.49
2022-09-15T17:18:26.156Z,59.40
2022-09-15T17:20:53.473Z,59.74
2022-09-15T17:23:28.712Z,59.41
2022-09-15T17:25:59.846Z,59.68
2022-09-15T17:28:29.068Z,59.65
2022-09-15T17:31:06.789Z,59.90
2022-09-15T17:33:34.017Z,59.68
2022-09-15T17:36:01.059Z,59.94
2022-09-15T17:38:28.253Z,60.25
2022-09-15T17:40:55.557Z,60.22
2022-09-15T17:43:25.320Z,60.00
2022-09-15T17:45:52.605Z,59.93
2022-09-15T17:48:19.805Z,60.17
2022-09-15T17:50:48.753Z,60.56
2022-09-15T17:53:26.957Z,60.46
2022-09-15T17:55:55.483Z,60.55
2022-09-15T17:58:24.173Z,60.75
2022-09-15T18:00:51.272Z,60.54
2022-09-15T18:03:38.267Z,60.84
2022-09-15T18:06:08.092Z,60.74
2022-09-15T18:08:38.511Z,60.90
2022-09-15T18:11:06.570Z,61.06
2022-09-15T18:13:34.650Z,61.12
2022-09-15T18:16:12.365Z,61.19
2022-09-15T18:18:41.320Z,61.21
2022-09-15T18:21:10.312Z,61.17
2022-09-15T18:23:40.601Z,61.26
2022-09-15T18:26:07.757Z,61.36
2022-09-15T18:28:34.692Z,61.41
2022-09-15T18:31:01.736Z,61.31
2022-09-15T18:33:29.180Z,61.62
2022-09-15T18:35:59.110Z,61.63
2022-09-15T18:38:26.505Z,61.66
2022-09-15T18:40:57.167Z,61.96
2022-09-15T18:43:27.700Z,61.81
2022-09-15T18:46:01.420Z,62.09
2022-09-15T18:48:31.950Z,62.01
2022-09-15T18:50:59.079Z,62.13
2022-09-15T18:53:27.993Z,62.39
2022-09-15T18:55:57.604Z,62.33
2022-09-15T18:58:30.316Z,62.48
2022-09-15T19:04:39.900Z,62.90
2022-09-15T19:07:13.700Z,62.85
2022-09-15T19:09:46.675Z,62.95
2022-09-15T19:12:17.556Z,63.15
2022-09-15T19:14:49.314Z,63.07
2022-09-15T19:17:19.385Z,63.32
2022-09-15T19:29:04.233Z,63.97
2022-09-15T19:31:32.020Z,64.12
2022-09-15T19:33:59.078Z,64.20
2022-09-15T19:36:28.993Z,64.17
2022-09-15T19:39:01.196Z,64.67
2022-09-15T19:41:28.591Z,64.83
2022-09-15T19:43:56.749Z,65.06
2022-09-15T19:46:26.187Z,64.69
2022-09-15T19:48:55.246Z,65.03
2022-09-15T19:51:25.011Z,65.37
2022-09-15T19:53:56.383Z,65.12
2022-09-15T19:56:26.608Z,65.51
2022-09-15T19:58:56.040Z,65.42
2022-09-15T20:01:24.779Z,65.68
2022-09-15T20:06:39.684Z,65.68
2022-09-15T20:09:07.225Z,65.79
2022-09-15T20:11:34.454Z,66.07
2022-09-15T20:14:02.083Z,66.20
2022-09-15T20:16:30.216Z,66.45
2022-09-15T20:18:57.739Z,66.73
2022-09-15T20:21:46.246Z,67.09
2022-09-15T20:24:16.668Z,67.37
2022-09-15T20:26:43.707Z,67.52
2022-09-15T20:29:10.955Z,67.82
2022-09-15T20:31:38.169Z,67.86
2022-09-15T20:34:05.346Z,68.27
2022-09-15T20:36:34.705Z,68.38
2022-09-15T20:39:03.400Z,68.42
2022-09-15T20:41:32.130Z,68.92
2022-09-15T20:43:59.840Z,69.10
2022-09-15T20:46:28.953Z,69.08
2022-09-15T20:48:55.965Z,69.68
2022-09-15T20:51:25.690Z,69.48
2022-09-15T20:53:55.121Z,69.65
2022-09-15T20:56:25.618Z,70.00
2022-09-15T20:58:53.990Z,70.27
2022-09-15T21:01:26.283Z,70.39
2022-09-15T21:03:55.403Z,70.72
2022-09-15T21:06:24.735Z,70.44
2022-09-15T21:08:53.323Z,70.88
2022-09-15T21:11:20.927Z,71.11
2022-09-15T21:13:48.775Z,70.81
2022-09-15T21:16:17.905Z,71.12
2022-09-15T21:18:45.798Z,70.94
2022-09-15T21:21:15.950Z,70.98
2022-09-15T21:23:50.722Z,71.50
2022-09-15T21:26:22.985Z,71.63
2022-09-15T21:28:51.001Z,71.37
2022-09-15T21:31:23.192Z,71.89
2022-09-15T21:33:51.383Z,71.76
2022-09-15T21:36:29.786Z,71.79
2022-09-15T21:38:58.758Z,72.07
2022-09-15T21:41:27.648Z,71.87
2022-09-15T21:43:55.451Z,72.27
2022-09-15T21:46:24.894Z,72.31
2022-09-15T21:48:52.186Z,72.75
2022-09-15T21:51:24.745Z,72.51
2022-09-15T21:53:53.902Z,72.75
2022-09-15T21:56:21.066Z,72.71
2022-09-15T21:58:48.317Z,73.18
2022-09-15T22:01:41.930Z,73.07
2022-09-15T22:04:10.671Z,73.14
2022-09-15T22:06:40.748Z,73.58
2022-09-15T22:09:10.998Z,72.86
2022-09-15T22:11:38.155Z,73.53
2022-09-15T22:14:09.258Z,73.54
2022-09-15T22:16:38.205Z,73.32
2022-09-15T22:19:07.172Z,73.35
2022-09-15T22:21:37.053Z,73.40
2022-09-15T22:24:07.024Z,73.35
2022-09-15T22:26:37.155Z,73.61
2022-09-15T22:29:04.870Z,73.43
2022-09-15T22:31:31.882Z,73.62
2022-09-15T22:33:58.869Z,73.47
2022-09-15T22:36:29.631Z,73.66
2022-09-15T22:39:04.217Z,73.57
2022-09-15T22:41:34.349Z,73.79
2022-09-15T22:44:01.520Z,73.55
2022-09-15T22:46:28.593Z,73.96
2022-09-15T22:48:55.548Z,73.81
2022-09-15T22:51:22.538Z,73.70
2022-09-15T22:53:53.993Z,74.13
2022-09-15T22:56:21.547Z,73.79
2022-09-15T22:58:49.752Z,74.14
2022-09-15T23:01:22.436Z,74.10
2022-09-15T23:03:56.909Z,74.11
2022-09-15T23:06:25.149Z,74.04
2022-09-15T23:08:56.860Z,73.88
2022-09-15T23:11:24.958Z,74.27
2022-09-15T23:13:53.341Z,74.02
2022-09-15T23:16:20.497Z,74.36
2022-09-15T23:18:48.368Z,74.42
2022-09-15T23:21:15.575Z,74.24
2022-09-15T23:23:44.390Z,74.22
2022-09-15T23:26:12.498Z,74.24
2022-09-15T23:28:40.081Z,74.32
2022-09-15T23:31:08.702Z,74.56
2022-09-15T23:33:36.029Z,74.35
2022-09-15T23:36:05.016Z,74.21
2022-09-15T23:38:32.278Z,74.77
2022-09-15T23:40:59.802Z,74.72
2022-09-15T23:43:27.124Z,74.52
2022-09-15T23:45:55.615Z,74.79
2022-09-15T23:48:23.568Z,74.54
2022-09-15T23:50:50.800Z,74.69
2022-09-15T23:53:18.596Z,74.87
2022-09-15T23:55:46.318Z,75.14
2022-09-15T23:58:13.468Z,74.80
